createdAt,value
2018-06-15T00:10:34.749Z,89.93
2018-06-15T00:13:03.721Z,89.93
2018-06-15T00:15:33.237Z,90.29
2018-06-15T00:18:01.988Z,90.64
2018-06-15T00:20:30.786Z,90.49
2018-06-15T00:22:59.908Z,90.80
2018-06-15T00:25:28.850Z,90.63
2018-06-15T00:27:57.452Z,90.57
2018-06-15T00:30:26.166Z,90.69
2018-06-15T00:32:54.796Z,90.98
2018-06-15T00:35:23.516Z,91.27
2018-06-15T00:37:52.735Z,91.27
2018-06-15T00:40:21.544Z,91.64
2018-06-15T00:42:50.896Z,91.47
2018-06-15T00:45:20.037Z,91.29
2018-06-15T00:47:49.444Z,91.19
2018-06-15T00:50:18.408Z,91.75
2018-06-15T00:52:47.103Z,92.10
2018-06-15T00:55:15.912Z,91.96
2018-06-15T00:57:47.316Z,91.71
2018-06-15T01:00:16.544Z,91.69
2018-06-15T01:02:45.566Z,91.53
2018-06-15T01:05:14.178Z,91.72
2018-06-15T01:07:43.125Z,91.66
2018-06-15T01:10:12.411Z,91.83
2018-06-15T01:12:41.593Z,91.66
2018-06-15T01:15:10.348Z,91.57
2018-06-15T01:17:38.960Z,91.53
2018-06-15T01:20:08.179Z,91.91
2018-06-15T01:22:37.569Z,91.86
2018-06-15T01:25:06.362Z,91.90
2018-06-15T01:27:34.987Z,91.93
2018-06-15T01:30:03.767Z,92.10
2018-06-15T01:32:32.397Z,92.09
2018-06-15T01:35:01.171Z,92.13
2018-06-15T01:37:29.857Z,92.22
2018-06-15T01:39:58.451Z,92.35
2018-06-15T01:42:27.231Z,92.36
2018-06-15T01:44:56.670Z,92.48
2018-06-15T01:47:25.806Z,92.49
2018-06-15T01:49:54.535Z,92.19
2018-06-15T01:52:23.136Z,92.08
2018-06-15T01:54:52.080Z,92.78
2018-06-15T01:57:21.590Z,92.56
2018-06-15T01:59:50.941Z,92.85
2018-06-15T02:02:20.150Z,92.73
2018-06-15T02:04:48.875Z,92.75
2018-06-15T02:07:17.576Z,92.76
2018-06-15T02:09:46.347Z,92.95
2018-06-15T02:12:15.023Z,93.10
2018-06-15T02:14:43.728Z,92.93
2018-06-15T02:17:13.578Z,93.29
2018-06-15T02:19:42.276Z,93.18
2018-06-15T02:22:10.942Z,93.33
2018-06-15T02:24:39.687Z,93.23
2018-06-15T02:27:08.408Z,93.11
2018-06-15T02:29:37.351Z,93.21
2018-06-15T02:32:06.107Z,93.36
2018-06-15T02:34:34.946Z,93.41
2018-06-15T02:37:03.583Z,93.48
2018-06-15T02:39:32.199Z,93.46
2018-06-15T02:42:00.921Z,93.78
2018-06-15T02:44:29.897Z,93.59
2018-06-15T02:46:59.258Z,93.60
2018-06-15T02:49:28.171Z,93.83
2018-06-15T02:51:56.861Z,93.40
2018-06-15T02:54:25.883Z,93.55
2018-06-15T02:56:54.550Z,93.30
2018-06-15T02:59:23.266Z,93.60
2018-06-15T03:01:52.168Z,93.44
2018-06-15T03:04:20.972Z,93.29
2018-06-15T03:06:50.243Z,93.55
2018-06-15T03:09:18.978Z,93.35
2018-06-15T03:11:47.648Z,93.30
2018-06-15T03:14:16.773Z,93.87
2018-06-15T03:16:45.601Z,93.54
2018-06-15T03:19:14.527Z,94.23
2018-06-15T03:21:43.370Z,93.63
2018-06-15T03:24:12.797Z,93.22
2018-06-15T03:26:41.978Z,93.67
2018-06-15T03:29:11.767Z,93.84
2018-06-15T03:31:40.378Z,93.83
2018-06-15T03:34:09.668Z,94.08
2018-06-15T03:36:38.446Z,94.10
2018-06-15T03:39:10.410Z,94.04
2018-06-15T03:41:39.232Z,93.90
2018-06-15T03:44:08.267Z,93.93
2018-06-15T03:46:38.256Z,93.87
2018-06-15T03:49:07.028Z,93.68
2018-06-15T03:51:36.317Z,93.56
2018-06-15T03:54:05.211Z,94.03
2018-06-15T03:56:33.871Z,93.68
2018-06-15T03:59:02.773Z,93.70
2018-06-15T04:01:33.073Z,93.53
2018-06-15T04:04:01.886Z,93.54
2018-06-15T04:06:30.564Z,93.59
2018-06-15T04:08:59.728Z,93.21
2018-06-15T04:11:28.281Z,93.24
2018-06-15T04:13:57.037Z,93.03
2018-06-15T04:16:25.754Z,92.95
2018-06-15T04:18:54.667Z,93.03
2018-06-15T04:21:24.010Z,92.87
2018-06-15T04:23:53.262Z,92.80
2018-06-15T04:26:22.237Z,93.05
2018-06-15T04:28:50.849Z,92.70
2018-06-15T04:31:19.908Z,92.92
2018-06-15T04:33:48.844Z,92.15
2018-06-15T04:36:17.829Z,91.84
2018-06-15T04:38:46.418Z,91.68
2018-06-15T04:41:15.949Z,91.49
2018-06-15T04:43:44.861Z,91.57
2018-06-15T04:46:13.768Z,91.08
2018-06-15T04:48:42.363Z,91.19
2018-06-15T04:51:11.488Z,90.83
2018-06-15T04:53:40.953Z,90.51
2018-06-15T04:56:09.662Z,89.99
2018-06-15T04:58:39.332Z,89.62
2018-06-15T05:01:08.539Z,88.55
2018-06-15T05:03:37.839Z,88.24
2018-06-15T05:06:06.912Z,87.90
2018-06-15T05:08:35.678Z,87.61
2018-06-15T05:11:04.437Z,87.00
2018-06-15T05:13:33.678Z,86.45
2018-06-15T05:16:02.439Z,85.91
2018-06-15T05:18:31.843Z,86.08
2018-06-15T05:21:01.190Z,85.59
2018-06-15T05:23:30.084Z,84.48
2018-06-15T05:25:59.676Z,84.04
2018-06-15T05:28:28.547Z,83.51
2018-06-15T05:30:57.395Z,83.11
2018-06-15T05:33:26.564Z,82.63
2018-06-15T05:35:55.837Z,82.63
2018-06-15T05:38:24.489Z,81.43
2018-06-15T05:40:53.407Z,80.05
2018-06-15T05:43:22.157Z,79.52
2018-06-15T05:45:50.894Z,78.20
2018-06-15T05:48:19.740Z,76.63
2018-06-15T05:50:48.657Z,75.51
2018-06-15T05:53:17.294Z,72.60
2018-06-15T05:55:46.982Z,70.81
2018-06-15T05:58:15.692Z,69.54
2018-06-15T06:00:44.896Z,68.27
2018-06-15T06:03:20.074Z,66.58
2018-06-15T06:05:49.327Z,67.04
2018-06-15T06:08:19.750Z,66.69
2018-06-15T06:10:49.714Z,67.20
2018-06-15T06:13:18.687Z,67.09
2018-06-15T06:15:47.970Z,67.19
2018-06-15T06:18:17.359Z,66.52
2018-06-15T06:20:46.127Z,66.10
2018-06-15T06:23:14.797Z,66.17
2018-06-15T06:25:43.592Z,66.47
2018-06-15T06:28:12.429Z,65.84
2018-06-15T06:30:41.454Z,65.45
2018-06-15T06:33:10.254Z,65.24
2018-06-15T06:35:39.804Z,65.28
2018-06-15T06:38:10.003Z,66.47
2018-06-15T06:40:38.593Z,67.19
2018-06-15T06:43:07.498Z,68.87
2018-06-15T06:45:36.115Z,67.80
2018-06-15T06:48:04.883Z,67.04
2018-06-15T06:50:33.482Z,66.67
2018-06-15T06:53:02.181Z,65.51
2018-06-15T06:55:30.845Z,64.69
2018-06-15T06:57:59.549Z,61.12
2018-06-15T07:00:29.074Z,60.41
2018-06-15T07:02:58.084Z,58.47
2018-06-15T07:05:26.904Z,57.75
2018-06-15T07:07:55.755Z,58.29
2018-06-15T07:10:24.999Z,58.12
2018-06-15T07:12:54.511Z,58.28
2018-06-15T07:15:23.475Z,58.78
2018-06-15T07:17:52.086Z,58.81
2018-06-15T07:20:20.890Z,58.92
2018-06-15T07:22:50.084Z,57.57
2018-06-15T07:25:19.784Z,57.47
2018-06-15T07:27:48.602Z,55.13
2018-06-15T07:30:17.952Z,53.70
2018-06-15T07:32:46.930Z,53.29
2018-06-15T07:35:15.511Z,52.50
2018-06-15T07:37:44.495Z,52.35
2018-06-15T07:40:13.395Z,49.70
2018-06-15T07:42:42.645Z,49.87
2018-06-15T07:45:11.360Z,48.73
2018-06-15T07:47:40.027Z,49.09
2018-06-15T07:50:08.826Z,45.62
2018-06-15T07:52:37.885Z,43.11
2018-06-15T07:55:07.380Z,41.51
2018-06-15T07:57:36.165Z,39.20
2018-06-15T08:00:05.132Z,36.51
2018-06-15T08:02:33.790Z,38.95
2018-06-15T08:05:02.565Z,37.14
2018-06-15T08:07:31.229Z,33.91
2018-06-15T08:10:00.057Z,36.03
2018-06-15T08:12:28.743Z,36.02
2018-06-15T08:14:57.476Z,36.43
2018-06-15T08:17:26.173Z,35.54
2018-06-15T08:19:55.009Z,34.88
2018-06-15T08:22:23.745Z,37.04
2018-06-15T08:24:52.583Z,37.90
2018-06-15T08:27:22.084Z,36.53
2018-06-15T08:29:50.849Z,37.08
2018-06-15T08:32:19.741Z,35.88
2018-06-15T08:34:49.043Z,37.20
2018-06-15T08:37:18.117Z,37.06
2018-06-15T08:39:46.635Z,37.64
2018-06-15T08:42:15.289Z,36.53
2018-06-15T08:44:44.130Z,36.76
2018-06-15T08:47:12.966Z,36.78
2018-06-15T08:49:41.814Z,35.32
2018-06-15T08:52:11.375Z,34.53
2018-06-15T08:54:40.714Z,33.84
2018-06-15T08:57:09.421Z,34.78
2018-06-15T08:59:38.126Z,35.09
2018-06-15T09:02:07.165Z,34.66
2018-06-15T09:04:36.111Z,33.82
2018-06-15T09:07:05.082Z,32.88
2018-06-15T09:09:34.066Z,32.58
2018-06-15T09:12:02.616Z,31.02
2018-06-15T09:14:31.453Z,30.69
2018-06-15T09:17:00.809Z,30.99
2018-06-15T09:19:29.993Z,31.30
2018-06-15T09:21:58.843Z,29.50
2018-06-15T09:24:27.468Z,30.79
2018-06-15T09:26:56.253Z,30.62
2018-06-15T09:29:24.950Z,31.26
2018-06-15T09:31:53.507Z,33.59
2018-06-15T09:34:22.150Z,34.98
2018-06-15T09:36:51.548Z,35.23
2018-06-15T09:39:20.355Z,36.25
2018-06-15T09:41:50.081Z,36.54
2018-06-15T09:44:19.266Z,37.19
2018-06-15T09:46:48.116Z,37.93
2018-06-15T09:49:16.789Z,37.07
2018-06-15T09:51:45.625Z,36.12
2018-06-15T09:54:14.239Z,35.23
2018-06-15T09:56:43.565Z,33.96
2018-06-15T09:59:12.363Z,32.92
2018-06-15T10:01:41.053Z,32.94
2018-06-15T10:04:09.689Z,32.68
2018-06-15T10:06:38.243Z,32.07
2018-06-15T10:09:07.921Z,31.72
2018-06-15T10:11:36.615Z,32.15
2018-06-15T10:14:05.320Z,32.17
2018-06-15T10:16:34.210Z,30.75
2018-06-15T10:19:03.636Z,29.96
2018-06-15T10:21:32.374Z,28.96
2018-06-15T10:24:01.120Z,30.77
2018-06-15T10:26:30.060Z,28.59
2018-06-15T10:28:58.936Z,27.64
2018-06-15T10:31:27.670Z,28.21
2018-06-15T10:33:56.838Z,28.52
2018-06-15T10:36:26.095Z,27.08
2018-06-15T10:38:54.867Z,25.41
2018-06-15T10:41:23.512Z,26.06
2018-06-15T10:43:52.791Z,26.37
2018-06-15T10:46:21.862Z,27.55
2018-06-15T10:48:50.762Z,27.39
2018-06-15T10:51:19.547Z,27.86
2018-06-15T10:53:48.360Z,26.61
2018-06-15T10:56:17.132Z,27.24
2018-06-15T10:58:46.108Z,28.52
2018-06-15T11:01:14.871Z,29.65
2018-06-15T11:03:43.500Z,29.21
2018-06-15T11:06:13.094Z,30.05
2018-06-15T11:08:41.877Z,32.19
2018-06-15T11:11:11.200Z,32.00
2018-06-15T11:13:40.489Z,32.73
2018-06-15T11:16:09.691Z,33.81
2018-06-15T11:18:38.791Z,33.61
2018-06-15T11:21:07.445Z,33.07
2018-06-15T11:23:36.340Z,32.94
2018-06-15T11:26:05.235Z,35.44
2018-06-15T11:28:34.111Z,38.22
2018-06-15T11:31:02.708Z,35.49
2018-06-15T11:33:32.194Z,35.54
2018-06-15T11:36:01.463Z,34.80
2018-06-15T11:38:30.252Z,32.89
2018-06-15T11:40:59.170Z,32.98
2018-06-15T11:43:27.842Z,33.50
2018-06-15T11:45:56.552Z,33.41
2018-06-15T11:48:25.297Z,34.11
2018-06-15T11:50:55.511Z,33.90
2018-06-15T11:53:24.340Z,34.12
2018-06-15T11:55:52.901Z,36.01
2018-06-15T11:58:21.710Z,36.71
2018-06-15T12:00:50.922Z,36.10
2018-06-15T12:03:20.382Z,35.04
2018-06-15T12:05:50.218Z,35.19
2018-06-15T12:08:19.646Z,36.60
2018-06-15T12:10:48.897Z,36.03
2018-06-15T12:13:17.657Z,34.76
2018-06-15T12:15:46.675Z,36.49
2018-06-15T12:18:15.386Z,35.91
2018-06-15T12:20:44.856Z,36.19
2018-06-15T12:23:13.681Z,36.27
2018-06-15T12:25:42.581Z,36.14
2018-06-15T12:28:11.325Z,35.52
2018-06-15T12:30:40.117Z,34.92
2018-06-15T12:33:08.933Z,34.33
2018-06-15T12:35:37.811Z,34.33
2018-06-15T12:38:06.831Z,35.02
2018-06-15T12:40:35.468Z,35.34
2018-06-15T12:43:04.585Z,36.00
2018-06-15T12:45:33.476Z,36.09
2018-06-15T12:48:02.140Z,35.69
2018-06-15T12:50:30.852Z,37.01
2018-06-15T12:52:59.566Z,37.90
2018-06-15T12:55:28.271Z,39.42
2018-06-15T12:57:57.115Z,39.73
2018-06-15T13:00:25.975Z,38.38
2018-06-15T13:02:54.732Z,38.86
2018-06-15T13:05:24.357Z,38.17
2018-06-15T13:07:53.109Z,37.84
2018-06-15T13:10:21.883Z,35.85
2018-06-15T13:12:50.558Z,37.48
2018-06-15T13:15:19.657Z,37.40
2018-06-15T13:17:48.779Z,36.89
2018-06-15T13:20:17.792Z,37.26
2018-06-15T13:22:46.720Z,38.04
2018-06-15T13:25:15.551Z,37.35
2018-06-15T13:27:44.396Z,38.76
2018-06-15T13:30:13.155Z,36.71
2018-06-15T13:32:41.858Z,37.82
2018-06-15T13:35:11.457Z,37.15
2018-06-15T13:37:40.610Z,36.88
2018-06-15T13:40:09.479Z,37.87
2018-06-15T13:42:38.195Z,36.61
2018-06-15T13:45:07.332Z,38.17
2018-06-15T13:47:35.998Z,38.31
2018-06-15T13:50:05.160Z,38.35
2018-06-15T13:52:34.116Z,37.77
2018-06-15T13:55:02.982Z,38.87
2018-06-15T13:57:32.507Z,37.47
2018-06-15T14:00:01.947Z,38.19
2018-06-15T14:02:32.116Z,36.83
2018-06-15T14:05:01.106Z,35.34
2018-06-15T14:07:30.573Z,35.59
2018-06-15T14:10:00.722Z,39.01
2018-06-15T14:12:29.936Z,36.98
2018-06-15T14:14:58.969Z,38.09
2018-06-15T14:17:27.851Z,37.33
2018-06-15T14:19:56.471Z,37.10
2018-06-15T14:22:25.270Z,38.53
2018-06-15T14:24:54.032Z,35.66
2018-06-15T14:27:22.809Z,35.04
2018-06-15T14:29:51.662Z,35.62
2018-06-15T14:32:20.599Z,37.04
2018-06-15T14:34:49.489Z,38.62
2018-06-15T14:37:18.294Z,39.07
2018-06-15T14:39:47.550Z,39.58
2018-06-15T14:42:16.302Z,41.06
2018-06-15T14:44:44.898Z,40.36
2018-06-15T14:47:14.254Z,40.00
2018-06-15T14:49:43.292Z,40.73
2018-06-15T14:52:12.570Z,41.33
2018-06-15T14:54:41.646Z,40.02
2018-06-15T14:57:10.519Z,39.92
2018-06-15T14:59:40.196Z,38.69
2018-06-15T15:02:09.334Z,40.40
2018-06-15T15:04:39.728Z,39.22
2018-06-15T15:07:08.826Z,36.78
2018-06-15T15:09:40.941Z,37.08
2018-06-15T15:12:09.805Z,38.10
2018-06-15T15:21:20.802Z,38.88
2018-06-15T15:23:50.121Z,38.82
2018-06-15T15:26:19.332Z,40.37
2018-06-15T15:28:48.562Z,39.80
2018-06-15T15:31:17.697Z,40.96
2018-06-15T15:33:46.772Z,40.11
2018-06-15T15:36:15.546Z,40.38
2018-06-15T15:38:45.578Z,40.02
2018-06-15T15:41:14.363Z,40.97
2018-06-15T15:43:43.877Z,41.54
2018-06-15T15:46:12.827Z,42.73
2018-06-15T15:48:41.617Z,40.58
2018-06-15T15:51:10.711Z,42.11
2018-06-15T15:53:39.803Z,40.57
2018-06-15T15:56:08.945Z,41.45
2018-06-15T15:58:38.278Z,41.04
2018-06-15T16:01:08.042Z,40.58
2018-06-15T16:03:36.873Z,40.89
2018-06-15T16:06:06.005Z,39.71
2018-06-15T16:08:35.064Z,39.16
2018-06-15T16:11:03.984Z,38.97
2018-06-15T16:13:33.745Z,37.18
2018-06-15T16:16:03.006Z,37.25
2018-06-15T16:18:32.029Z,37.04
2018-06-15T16:21:00.990Z,36.95
2018-06-15T16:23:29.768Z,36.07
2018-06-15T16:25:58.733Z,34.41
2018-06-15T16:28:27.947Z,34.78
2018-06-15T16:30:56.657Z,34.29
2018-06-15T16:33:25.502Z,34.37
2018-06-15T16:35:54.545Z,33.59
2018-06-15T16:38:23.773Z,34.14
2018-06-15T16:40:52.769Z,35.75
2018-06-15T16:43:21.615Z,36.89
2018-06-15T16:45:50.610Z,36.49
2018-06-15T16:48:19.412Z,36.29
2018-06-15T16:50:49.168Z,37.49
2018-06-15T16:53:17.900Z,36.91
2018-06-15T16:55:46.613Z,36.59
2018-06-15T16:58:15.317Z,36.20
2018-06-15T17:00:44.818Z,34.49
2018-06-15T17:03:15.311Z,35.59
2018-06-15T17:05:43.987Z,36.28
2018-06-15T17:08:12.731Z,36.86
2018-06-15T17:10:42.354Z,38.38
2018-06-15T17:13:11.185Z,38.57
2018-06-15T17:15:41.187Z,38.71
2018-06-15T17:18:10.073Z,39.82
2018-06-15T17:20:38.671Z,40.36
2018-06-15T17:23:07.964Z,41.21
2018-06-15T17:25:37.105Z,41.76
2018-06-15T17:28:06.008Z,43.75
2018-06-15T17:30:34.843Z,46.48
2018-06-15T17:33:03.621Z,49.36
2018-06-15T17:35:33.033Z,51.08
2018-06-15T17:38:02.381Z,52.25
2018-06-15T17:40:31.503Z,52.15
2018-06-15T17:43:00.954Z,52.61
2018-06-15T17:45:30.372Z,53.54
2018-06-15T17:47:59.496Z,54.13
2018-06-15T17:50:28.503Z,54.86
2018-06-15T17:52:57.574Z,54.69
2018-06-15T17:55:26.909Z,56.02
2018-06-15T17:57:55.932Z,55.00
2018-06-15T18:00:25.303Z,48.72
2018-06-15T18:02:54.390Z,47.40
2018-06-15T18:05:23.714Z,47.46
2018-06-15T18:07:53.072Z,49.95
2018-06-15T18:10:22.229Z,52.44
2018-06-15T18:12:51.349Z,54.70
2018-06-15T18:15:20.507Z,56.43
2018-06-15T18:17:49.879Z,57.22
2018-06-15T18:20:19.039Z,57.78
2018-06-15T18:22:48.103Z,57.45
2018-06-15T18:25:17.557Z,58.32
2018-06-15T18:27:47.005Z,58.83
2018-06-15T18:30:16.903Z,58.71
2018-06-15T18:32:45.880Z,58.78
2018-06-15T18:35:15.038Z,59.10
2018-06-15T18:37:46.650Z,59.72
2018-06-15T18:40:15.668Z,60.76
2018-06-15T18:42:45.003Z,61.58
2018-06-15T18:45:14.328Z,62.59
2018-06-15T18:47:43.137Z,63.41
2018-06-15T18:50:12.341Z,65.00
2018-06-15T18:52:41.422Z,66.32
2018-06-15T18:55:10.375Z,67.65
2018-06-15T18:57:39.244Z,68.70
2018-06-15T19:00:09.070Z,68.91
2018-06-15T19:02:38.223Z,69.01
2018-06-15T19:05:08.105Z,69.77
2018-06-15T19:07:37.179Z,69.14
2018-06-15T19:10:06.184Z,69.09
2018-06-15T19:12:35.702Z,69.57
2018-06-15T19:15:05.298Z,70.87
2018-06-15T19:17:34.225Z,71.66
2018-06-15T19:20:04.232Z,71.51
2018-06-15T19:22:33.635Z,71.36
2018-06-15T19:25:02.869Z,71.82
2018-06-15T19:27:32.056Z,72.37
2018-06-15T19:30:00.803Z,72.92
2018-06-15T19:32:29.643Z,72.43
2018-06-15T19:34:58.618Z,73.14
2018-06-15T19:37:28.585Z,73.09
2018-06-15T19:39:57.788Z,73.95
2018-06-15T19:42:27.263Z,74.61
2018-06-15T19:44:56.450Z,74.63
2018-06-15T19:47:25.787Z,74.71
2018-06-15T19:49:54.845Z,75.20
2018-06-15T19:52:24.139Z,74.79
2018-06-15T19:54:53.239Z,75.29
2018-06-15T19:57:22.689Z,75.39
2018-06-15T19:59:51.694Z,76.52
2018-06-15T20:02:21.098Z,77.31
2018-06-15T20:04:50.385Z,77.64
2018-06-15T20:07:19.550Z,78.18
2018-06-15T20:09:48.925Z,77.77
2018-06-15T20:12:17.968Z,78.22
2018-06-15T20:14:47.152Z,79.21
2018-06-15T20:17:16.349Z,79.53
2018-06-15T20:19:45.582Z,80.67
2018-06-15T20:22:15.027Z,80.40
2018-06-15T20:24:44.193Z,80.75
2018-06-15T20:27:13.417Z,80.54
2018-06-15T20:29:42.704Z,81.00
2018-06-15T20:32:11.933Z,80.91
2018-06-15T20:34:41.143Z,81.28
2018-06-15T20:37:11.117Z,82.41
2018-06-15T20:39:40.529Z,82.83
2018-06-15T20:42:09.484Z,82.82
2018-06-15T20:44:38.355Z,82.78
2018-06-15T20:47:07.948Z,82.76
2018-06-15T20:49:36.717Z,82.98
2018-06-15T20:52:06.574Z,82.74
2018-06-15T20:54:35.685Z,82.40
2018-06-15T20:57:04.295Z,82.88
2018-06-15T20:59:33.132Z,83.19
2018-06-15T21:02:01.985Z,83.24
2018-06-15T21:04:31.664Z,82.99
2018-06-15T21:07:00.663Z,83.63
2018-06-15T21:09:29.959Z,83.37
2018-06-15T21:11:59.173Z,83.47
2018-06-15T21:14:28.521Z,84.41
2018-06-15T21:16:57.568Z,83.82
2018-06-15T21:19:27.077Z,84.03
2018-06-15T21:21:56.160Z,84.46
2018-06-15T21:24:24.935Z,84.37
2018-06-15T21:26:53.847Z,84.87
2018-06-15T21:29:22.675Z,85.04
2018-06-15T21:31:52.289Z,85.64
2018-06-15T21:34:21.171Z,85.73
2018-06-15T21:36:50.115Z,85.95
2018-06-15T21:39:18.895Z,85.92
2018-06-15T21:41:47.843Z,86.05
2018-06-15T21:44:16.853Z,85.95
2018-06-15T21:46:45.700Z,85.89
2018-06-15T21:49:14.628Z,86.02
2018-06-15T21:51:43.989Z,86.31
2018-06-15T21:54:12.723Z,86.28
2018-06-15T21:56:41.383Z,86.86
2018-06-15T21:59:10.619Z,87.32
2018-06-15T22:01:39.393Z,87.00
2018-06-15T22:04:08.797Z,86.81
2018-06-15T22:06:37.551Z,86.94
2018-06-15T22:09:07.939Z,87.59
2018-06-15T22:11:36.542Z,87.37
2018-06-15T22:14:06.653Z,87.51
2018-06-15T22:16:41.264Z,87.83
2018-06-15T22:19:10.114Z,87.64
2018-06-15T22:21:38.717Z,88.18
2018-06-15T22:24:07.600Z,88.07
2018-06-15T22:26:36.380Z,88.37
2018-06-15T22:29:05.985Z,88.27
2018-06-15T22:31:34.817Z,88.45
2018-06-15T22:34:03.664Z,88.98
2018-06-15T22:36:32.491Z,88.88
2018-06-15T22:39:01.303Z,88.77
2018-06-15T22:41:30.301Z,89.19
2018-06-15T22:43:59.017Z,89.08
2018-06-15T22:46:28.508Z,89.15
2018-06-15T22:48:57.229Z,89.78
2018-06-15T22:51:26.055Z,89.60
2018-06-15T22:53:54.974Z,89.78
2018-06-15T22:56:24.610Z,89.26
2018-06-15T22:58:53.362Z,89.89
2018-06-15T23:01:21.939Z,89.95
2018-06-15T23:03:50.614Z,89.93
2018-06-15T23:06:19.214Z,89.74
2018-06-15T23:08:47.820Z,89.94
2018-06-15T23:11:16.491Z,89.91
2018-06-15T23:13:45.071Z,90.07
2018-06-15T23:16:14.674Z,90.14
2018-06-15T23:18:43.320Z,90.38
2018-06-15T23:21:12.024Z,90.34
2018-06-15T23:23:41.091Z,90.12
2018-06-15T23:26:09.916Z,90.45
2018-06-15T23:28:38.438Z,90.45
2018-06-15T23:31:07.914Z,90.34
2018-06-15T23:33:36.665Z,89.74
2018-06-15T23:36:05.345Z,89.76
2018-06-15T23:38:34.153Z,90.21
2018-06-15T23:41:02.689Z,90.80
2018-06-15T23:43:31.684Z,90.94
2018-06-15T23:46:00.351Z,90.66
2018-06-15T23:48:29.381Z,90.55
2018-06-15T23:50:58.007Z,91.09
2018-06-15T23:53:26.780Z,91.26
2018-06-15T23:55:55.384Z,91.50
2018-06-15T23:58:24.150Z,91.64
